createdAt,value
2022-08-20T00:02:21.199Z,74.87
2022-08-20T00:04:54.043Z,74.88
2022-08-20T00:07:26.405Z,74.58
2022-08-20T00:09:58.629Z,74.55
2022-08-20T00:12:31.507Z,74.42
2022-08-20T00:15:05.819Z,74.44
2022-08-20T00:17:40.544Z,74.60
2022-08-20T00:20:16.070Z,74.71
2022-08-20T00:22:48.571Z,74.88
2022-08-20T00:25:21.182Z,74.76
2022-08-20T00:27:53.432Z,74.95
2022-08-20T00:30:27.653Z,75.00
2022-08-20T00:33:02.670Z,75.19
2022-08-20T00:35:37.255Z,75.25
2022-08-20T00:38:09.380Z,75.50
2022-08-20T00:40:45.990Z,75.25
2022-08-20T00:43:34.966Z,75.24
2022-08-20T00:46:10.575Z,75.65
2022-08-20T00:48:47.866Z,75.94
2022-08-20T00:51:29.979Z,76.00
2022-08-20T00:54:07.265Z,75.99
2022-08-20T00:56:40.819Z,75.94
2022-08-20T00:59:17.903Z,76.17
2022-08-20T01:01:55.889Z,76.14
2022-08-20T01:04:30.109Z,76.23
2022-08-20T01:07:05.420Z,76.50
2022-08-20T01:09:58.081Z,76.49
2022-08-20T01:12:32.882Z,76.57
2022-08-20T01:15:11.643Z,76.32
2022-08-20T01:17:49.429Z,76.49
2022-08-20T01:20:25.427Z,76.53
2022-08-20T01:23:23.642Z,77.16
2022-08-20T01:26:00.488Z,77.02
2022-08-20T01:28:39.609Z,77.47
2022-08-20T01:31:14.746Z,77.66
2022-08-20T01:33:47.945Z,77.76
2022-08-20T01:36:23.240Z,77.04
2022-08-20T01:38:55.809Z,77.16
2022-08-20T01:41:40.959Z,77.22
2022-08-20T01:44:16.984Z,77.11
2022-08-20T01:46:53.806Z,77.29
2022-08-20T01:49:32.608Z,77.55
2022-08-20T01:52:08.055Z,77.52
2022-08-20T01:54:40.996Z,77.54
2022-08-20T01:57:19.937Z,77.21
2022-08-20T01:59:53.234Z,77.53
2022-08-20T02:02:27.053Z,77.66
2022-08-20T02:05:00.903Z,77.72
2022-08-20T02:07:33.526Z,77.86
2022-08-20T02:10:07.833Z,77.84
2022-08-20T02:12:40.789Z,77.78
2022-08-20T02:15:13.943Z,77.90
2022-08-20T02:17:46.117Z,77.72
2022-08-20T02:20:23.745Z,77.94
2022-08-20T02:22:59.249Z,77.86
2022-08-20T02:25:35.317Z,77.77
2022-08-20T02:28:11.233Z,77.68
2022-08-20T02:30:47.051Z,77.70
2022-08-20T02:33:24.258Z,77.72
2022-08-20T02:35:57.846Z,77.63
2022-08-20T02:38:29.904Z,77.47
2022-08-20T02:41:02.368Z,77.54
2022-08-20T02:43:34.691Z,77.73
2022-08-20T02:46:07.910Z,77.95
2022-08-20T02:48:40.588Z,77.88
2022-08-20T02:51:12.679Z,77.90
2022-08-20T02:53:44.800Z,77.80
2022-08-20T02:56:17.217Z,77.80
2022-08-20T02:58:49.343Z,77.90
2022-08-20T03:01:21.479Z,77.89
2022-08-20T03:03:57.167Z,77.92
2022-08-20T03:06:29.715Z,77.90
2022-08-20T03:09:04.653Z,77.68
2022-08-20T03:11:35.262Z,77.58
2022-08-20T03:14:07.863Z,77.99
2022-08-20T03:16:40.007Z,78.21
2022-08-20T03:19:13.905Z,78.18
2022-08-20T03:21:46.170Z,78.25
2022-08-20T03:24:18.342Z,78.14
2022-08-20T03:26:51.549Z,77.63
2022-08-20T03:29:24.223Z,77.25
2022-08-20T03:31:57.313Z,76.91
2022-08-20T03:34:29.387Z,77.08
2022-08-20T03:37:01.678Z,77.26
2022-08-20T03:39:33.951Z,77.20
2022-08-20T03:42:06.875Z,77.10
2022-08-20T03:44:39.244Z,77.01
2022-08-20T03:47:11.809Z,77.07
2022-08-20T03:49:43.960Z,77.33
2022-08-20T03:52:16.725Z,77.83
2022-08-20T03:54:50.032Z,78.37
2022-08-20T03:57:29.293Z,78.21
2022-08-20T04:00:02.489Z,77.96
2022-08-20T04:02:43.798Z,78.00
2022-08-20T04:05:15.902Z,78.15
2022-08-20T04:07:49.265Z,77.99
2022-08-20T04:10:22.113Z,77.95
2022-08-20T04:13:15.347Z,77.71
2022-08-20T04:15:50.149Z,77.44
2022-08-20T04:18:24.189Z,77.91
2022-08-20T04:20:59.529Z,78.64
2022-08-20T04:23:33.330Z,78.87
2022-08-20T04:26:06.069Z,78.83
2022-08-20T04:28:38.385Z,78.84
2022-08-20T04:31:13.019Z,78.39
2022-08-20T04:33:45.530Z,78.85
2022-08-20T04:36:17.664Z,78.86
2022-08-20T04:38:51.127Z,79.16
2022-08-20T04:41:24.763Z,79.67
2022-08-20T04:43:58.368Z,79.56
2022-08-20T04:46:35.232Z,79.73
2022-08-20T04:49:08.510Z,79.67
2022-08-20T04:51:40.795Z,79.61
2022-08-20T04:54:14.490Z,79.47
2022-08-20T04:56:48.401Z,79.34
2022-08-20T04:59:20.716Z,79.17
2022-08-20T05:01:52.826Z,78.86
2022-08-20T05:04:27.692Z,78.80
2022-08-20T05:07:00.405Z,78.79
2022-08-20T05:09:44.053Z,79.03
2022-08-20T05:12:18.240Z,79.25
2022-08-20T05:14:50.570Z,79.08
2022-08-20T05:17:23.944Z,79.13
2022-08-20T05:20:00.311Z,79.23
2022-08-20T05:22:32.905Z,79.41
2022-08-20T05:25:06.245Z,79.38
2022-08-20T05:27:39.775Z,79.54
2022-08-20T05:30:14.457Z,79.36
2022-08-20T05:32:47.447Z,79.95
2022-08-20T05:35:19.641Z,79.77
2022-08-20T05:37:51.837Z,79.73
2022-08-20T05:40:25.783Z,79.42
2022-08-20T05:42:58.437Z,79.25
2022-08-20T05:45:34.906Z,79.07
2022-08-20T05:48:10.732Z,79.07
2022-08-20T05:50:45.960Z,78.93
2022-08-20T05:53:19.176Z,78.98
2022-08-20T05:55:51.613Z,79.22
2022-08-20T05:58:25.777Z,78.92
2022-08-20T06:00:59.072Z,79.00
2022-08-20T06:03:48.830Z,79.17
2022-08-20T06:06:45.021Z,79.60
2022-08-20T06:09:13.338Z,79.57
2022-08-20T06:11:45.863Z,79.94
2022-08-20T06:14:19.181Z,79.63
2022-08-20T06:16:58.007Z,79.03
2022-08-20T06:19:32.365Z,78.62
2022-08-20T06:22:19.423Z,78.65
2022-08-20T06:24:59.197Z,78.46
2022-08-20T06:27:34.216Z,78.81
2022-08-20T06:30:10.190Z,78.49
2022-08-20T06:32:42.701Z,78.01
2022-08-20T06:35:19.904Z,77.97
2022-08-20T06:37:53.028Z,77.29
2022-08-20T06:40:28.692Z,76.91
2022-08-20T06:43:01.440Z,77.61
2022-08-20T06:45:36.175Z,77.49
2022-08-20T06:48:08.822Z,77.10
2022-08-20T06:50:47.058Z,77.03
2022-08-20T06:53:21.812Z,77.31
2022-08-20T06:55:56.660Z,77.54
2022-08-20T06:58:36.333Z,77.31
2022-08-20T07:01:12.726Z,77.75
2022-08-20T07:03:55.779Z,77.97
2022-08-20T07:06:28.728Z,77.37
2022-08-20T07:09:01.315Z,77.03
2022-08-20T07:11:35.467Z,77.95
2022-08-20T07:14:08.490Z,77.66
2022-08-20T07:16:40.669Z,76.77
2022-08-20T07:19:13.146Z,76.66
2022-08-20T07:21:45.412Z,76.15
2022-08-20T07:24:17.605Z,75.64
2022-08-20T07:26:51.177Z,75.58
2022-08-20T07:29:44.331Z,75.66
2022-08-20T07:32:34.153Z,75.55
2022-08-20T07:35:14.392Z,75.50
2022-08-20T07:37:50.175Z,75.72
2022-08-20T07:40:28.865Z,75.55
2022-08-20T07:43:03.082Z,75.72
2022-08-20T07:45:36.489Z,76.18
2022-08-20T07:48:15.044Z,76.38
2022-08-20T07:51:03.729Z,75.97
2022-08-20T07:53:38.115Z,75.84
2022-08-20T07:56:13.333Z,74.58
2022-08-20T07:58:50.205Z,74.18
2022-08-20T08:01:26.240Z,72.95
2022-08-20T08:03:59.052Z,72.22
2022-08-20T08:06:33.066Z,71.95
2022-08-20T08:09:17.617Z,72.73
2022-08-20T08:11:51.892Z,72.71
2022-08-20T08:14:29.270Z,72.22
2022-08-20T08:17:05.446Z,71.99
2022-08-20T08:19:41.653Z,71.62
2022-08-20T08:22:16.511Z,71.24
2022-08-20T08:24:57.404Z,70.46
2022-08-20T08:27:32.614Z,70.06
2022-08-20T08:30:05.553Z,70.80
2022-08-20T08:32:59.348Z,70.96
2022-08-20T08:35:32.626Z,70.52
2022-08-20T08:38:05.121Z,70.30
2022-08-20T08:40:38.905Z,69.50
2022-08-20T08:43:14.084Z,69.42
2022-08-20T08:46:01.646Z,68.89
2022-08-20T08:48:38.320Z,68.19
2022-08-20T08:51:12.502Z,68.84
2022-08-20T08:53:48.675Z,68.48
2022-08-20T08:56:21.655Z,68.68
2022-08-20T08:58:55.642Z,68.97
2022-08-20T09:01:53.838Z,68.79
2022-08-20T09:04:23.055Z,67.59
2022-08-20T09:06:54.531Z,67.09
2022-08-20T09:09:31.049Z,67.13
2022-08-20T09:12:08.991Z,68.39
2022-08-20T09:14:42.182Z,66.46
2022-08-20T09:17:14.978Z,66.64
2022-08-20T09:19:47.361Z,67.58
2022-08-20T09:22:23.526Z,67.23
2022-08-20T09:24:56.343Z,66.49
2022-08-20T09:27:29.017Z,67.37
2022-08-20T09:30:01.381Z,66.76
2022-08-20T09:32:33.653Z,66.69
2022-08-20T09:35:09.542Z,66.49
2022-08-20T09:37:42.138Z,66.24
2022-08-20T09:40:15.226Z,65.80
2022-08-20T09:42:53.827Z,66.24
2022-08-20T09:45:26.460Z,66.00
2022-08-20T09:47:58.683Z,65.29
2022-08-20T09:50:36.260Z,65.19
2022-08-20T09:53:08.571Z,65.72
2022-08-20T09:55:43.423Z,65.16
2022-08-20T09:58:20.114Z,65.64
2022-08-20T10:00:52.508Z,65.76
2022-08-20T10:03:25.186Z,65.24
2022-08-20T10:05:57.647Z,65.12
2022-08-20T10:08:30.144Z,65.30
2022-08-20T10:11:02.815Z,65.10
2022-08-20T10:13:35.473Z,65.17
2022-08-20T10:16:08.195Z,65.34
2022-08-20T10:18:40.260Z,64.78
2022-08-20T10:21:14.174Z,64.68
2022-08-20T10:23:47.093Z,64.71
2022-08-20T10:26:19.489Z,64.59
2022-08-20T10:28:52.141Z,64.50
2022-08-20T10:31:24.818Z,65.01
2022-08-20T10:33:57.761Z,64.99
2022-08-20T10:36:30.337Z,64.91
2022-08-20T10:39:02.657Z,64.71
2022-08-20T10:41:38.939Z,64.60
2022-08-20T10:44:11.759Z,65.52
2022-08-20T10:46:45.778Z,64.77
2022-08-20T10:49:17.939Z,64.20
2022-08-20T10:51:50.550Z,64.68
2022-08-20T10:54:23.582Z,63.86
2022-08-20T10:56:55.659Z,63.67
2022-08-20T10:59:27.959Z,63.82
2022-08-20T11:02:00.310Z,64.96
2022-08-20T11:04:32.803Z,63.41
2022-08-20T11:07:18.527Z,63.20
2022-08-20T11:09:51.742Z,62.21
2022-08-20T11:12:25.264Z,62.01
2022-08-20T11:14:58.344Z,62.58
2022-08-20T11:17:33.196Z,62.51
2022-08-20T11:20:12.719Z,62.10
2022-08-20T11:22:45.244Z,61.47
2022-08-20T11:25:17.886Z,61.87
2022-08-20T11:27:52.210Z,61.75
2022-08-20T11:30:24.789Z,62.07
2022-08-20T11:32:57.223Z,61.73
2022-08-20T11:35:48.979Z,61.42
2022-08-20T11:38:21.836Z,61.94
2022-08-20T11:40:53.952Z,61.80
2022-08-20T11:43:26.393Z,61.92
2022-08-20T11:45:59.172Z,62.27
2022-08-20T11:48:31.296Z,62.26
2022-08-20T11:51:04.018Z,61.97
2022-08-20T11:53:36.439Z,62.18
2022-08-20T11:56:09.960Z,62.53
2022-08-20T11:58:46.161Z,61.96
2022-08-20T12:01:18.658Z,61.64
2022-08-20T12:03:51.157Z,62.18
2022-08-20T12:06:23.496Z,62.36
2022-08-20T12:08:55.601Z,61.60
2022-08-20T12:11:28.549Z,61.18
2022-08-20T12:14:00.833Z,60.48
2022-08-20T12:16:33.608Z,60.05
2022-08-20T12:19:05.850Z,60.27
2022-08-20T12:21:37.976Z,60.30
2022-08-20T12:24:10.670Z,60.16
2022-08-20T12:26:42.858Z,60.57
2022-08-20T12:29:14.960Z,60.46
2022-08-20T12:31:47.621Z,60.02
2022-08-20T12:34:19.715Z,60.40
2022-08-20T12:36:51.992Z,59.83
2022-08-20T12:39:24.059Z,60.06
2022-08-20T12:41:56.446Z,60.65
2022-08-20T12:44:28.924Z,59.97
2022-08-20T12:47:11.598Z,59.43
2022-08-20T12:49:46.532Z,60.12
2022-08-20T12:52:20.880Z,59.93
2022-08-20T12:54:53.914Z,60.28
2022-08-20T12:57:31.014Z,59.40
2022-08-20T13:00:08.493Z,60.04
2022-08-20T13:02:41.317Z,59.08
2022-08-20T13:05:14.952Z,58.98
2022-08-20T13:07:47.828Z,58.93
2022-08-20T13:10:24.329Z,58.28
2022-08-20T13:12:57.050Z,57.32
2022-08-20T13:15:30.682Z,56.58
2022-08-20T13:18:06.140Z,56.74
2022-08-20T13:20:38.712Z,56.38
2022-08-20T13:23:11.091Z,55.51
2022-08-20T13:25:43.446Z,55.14
2022-08-20T13:28:15.692Z,54.92
2022-08-20T13:30:47.884Z,55.51
2022-08-20T13:33:19.935Z,55.83
2022-08-20T13:35:51.912Z,56.44
2022-08-20T13:38:24.808Z,56.16
2022-08-20T13:40:56.917Z,56.96
2022-08-20T13:43:29.221Z,56.51
2022-08-20T13:46:01.490Z,56.98
2022-08-20T13:48:33.799Z,57.17
2022-08-20T13:51:07.001Z,57.52
2022-08-20T13:53:39.128Z,57.82
2022-08-20T13:56:11.707Z,58.18
2022-08-20T13:58:44.026Z,58.41
2022-08-20T14:01:16.287Z,59.03
2022-08-20T14:03:48.775Z,59.22
2022-08-20T14:06:20.833Z,59.45
2022-08-20T14:08:53.077Z,59.40
2022-08-20T14:11:25.351Z,59.42
2022-08-20T14:13:57.413Z,59.37
2022-08-20T14:16:32.209Z,59.72
2022-08-20T14:19:07.337Z,60.70
2022-08-20T14:21:40.022Z,60.29
2022-08-20T14:24:12.009Z,59.95
2022-08-20T14:26:44.647Z,60.23
2022-08-20T14:29:20.810Z,60.14
2022-08-20T14:31:52.901Z,60.15
2022-08-20T14:34:24.914Z,60.58
2022-08-20T14:36:58.270Z,60.37
2022-08-20T14:39:30.464Z,60.61
2022-08-20T14:42:02.990Z,60.45
2022-08-20T14:44:35.211Z,60.97
2022-08-20T14:47:21.613Z,61.29
2022-08-20T14:49:55.493Z,61.60
2022-08-20T14:52:28.227Z,61.55
2022-08-20T14:55:00.490Z,61.77
2022-08-20T14:57:33.405Z,61.62
2022-08-20T15:00:08.506Z,61.82
2022-08-20T15:02:40.682Z,61.95
2022-08-20T15:05:14.381Z,62.00
2022-08-20T15:07:49.277Z,62.11
2022-08-20T15:10:27.682Z,62.86
2022-08-20T15:13:00.144Z,63.78
2022-08-20T15:15:32.605Z,64.64
2022-08-20T15:18:05.159Z,65.59
2022-08-20T15:20:38.401Z,65.88
2022-08-20T15:23:12.537Z,65.53
2022-08-20T15:25:44.903Z,65.68
2022-08-20T15:28:17.555Z,66.19
2022-08-20T15:30:49.954Z,66.45
2022-08-20T15:33:22.072Z,65.98
2022-08-20T15:35:54.803Z,67.09
2022-08-20T15:38:26.911Z,68.25
2022-08-20T15:41:01.261Z,68.46
2022-08-20T15:43:34.772Z,68.56
2022-08-20T15:46:10.002Z,68.67
2022-08-20T15:48:46.743Z,68.74
2022-08-20T15:51:28.332Z,69.05
2022-08-20T15:54:04.369Z,69.46
2022-08-20T15:56:48.926Z,68.95
2022-08-20T15:59:45.630Z,69.01
2022-08-20T16:02:41.806Z,70.16
2022-08-20T16:05:21.681Z,71.33
2022-08-20T16:08:07.543Z,71.65
2022-08-20T16:10:52.656Z,72.50
2022-08-20T16:13:33.193Z,73.54
2022-08-20T16:16:08.209Z,75.18
2022-08-20T16:18:41.649Z,75.83
2022-08-20T16:21:18.175Z,77.07
2022-08-20T16:23:51.034Z,77.84
2022-08-20T16:26:36.248Z,78.94
2022-08-20T16:29:13.041Z,80.06
2022-08-20T16:31:50.778Z,79.91
2022-08-20T16:34:34.311Z,79.60
2022-08-20T16:37:23.044Z,79.76
2022-08-20T16:39:59.771Z,79.55
2022-08-20T16:42:38.605Z,79.85
2022-08-20T16:45:18.199Z,81.11
2022-08-20T16:47:52.177Z,81.69
2022-08-20T16:50:28.197Z,82.46
2022-08-20T16:53:00.483Z,82.64
2022-08-20T16:55:32.773Z,83.21
2022-08-20T16:58:06.531Z,83.46
2022-08-20T17:00:44.851Z,83.13
2022-08-20T17:03:31.502Z,82.21
2022-08-20T17:06:20.611Z,81.85
2022-08-20T17:08:53.910Z,81.70
2022-08-20T17:11:32.643Z,81.96
2022-08-20T17:14:11.655Z,82.35
2022-08-20T17:16:48.383Z,82.38
2022-08-20T17:19:29.201Z,82.56
2022-08-20T17:22:15.161Z,82.62
2022-08-20T17:24:54.419Z,82.85
2022-08-20T17:27:41.019Z,82.47
2022-08-20T17:30:23.574Z,81.97
2022-08-20T17:33:00.464Z,82.08
2022-08-20T17:35:45.342Z,82.54
2022-08-20T17:38:33.232Z,82.38
2022-08-20T17:41:16.585Z,82.43
2022-08-20T17:43:57.571Z,82.67
2022-08-20T17:46:31.525Z,82.57
2022-08-20T17:49:08.495Z,82.76
2022-08-20T17:51:45.935Z,82.98
2022-08-20T17:54:24.350Z,83.44
2022-08-20T17:57:00.548Z,83.32
2022-08-20T18:00:01.465Z,83.14
2022-08-20T18:02:38.618Z,83.05
2022-08-20T18:05:21.998Z,83.28
2022-08-20T18:08:16.035Z,83.24
2022-08-20T18:10:58.364Z,83.48
2022-08-20T18:13:48.148Z,83.29
2022-08-20T18:16:28.488Z,83.38
2022-08-20T18:19:13.284Z,83.18
2022-08-20T18:22:09.530Z,83.20
2022-08-20T18:24:50.840Z,83.08
2022-08-20T18:27:27.554Z,83.37
2022-08-20T18:30:01.740Z,83.37
2022-08-20T18:32:38.547Z,83.14
2022-08-20T18:35:15.211Z,83.17
2022-08-20T18:37:49.802Z,83.34
2022-08-20T18:40:29.324Z,82.59
2022-08-20T18:43:15.377Z,82.60
2022-08-20T18:45:47.714Z,82.54
2022-08-20T18:48:25.805Z,82.77
2022-08-20T18:50:59.404Z,82.83
2022-08-20T18:53:35.410Z,83.38
2022-08-20T18:56:09.744Z,83.55
2022-08-20T18:59:01.386Z,83.55
2022-08-20T19:01:37.795Z,82.75
2022-08-20T19:04:22.593Z,82.79
2022-08-20T19:07:02.846Z,82.69
2022-08-20T19:09:54.488Z,82.93
2022-08-20T19:12:45.216Z,82.73
2022-08-20T19:15:20.032Z,82.81
2022-08-20T19:18:04.459Z,82.87
2022-08-20T19:20:40.530Z,83.02
2022-08-20T19:23:19.956Z,83.51
2022-08-20T19:25:57.706Z,83.52
2022-08-20T19:28:35.956Z,83.39
2022-08-20T19:31:16.881Z,83.26
2022-08-20T19:33:51.767Z,83.62
2022-08-20T19:36:28.294Z,83.66
2022-08-20T19:39:03.130Z,83.42
2022-08-20T19:41:47.528Z,83.46
2022-08-20T19:44:32.255Z,83.71
2022-08-20T19:47:06.083Z,83.73
2022-08-20T19:49:47.229Z,83.57
2022-08-20T19:52:36.388Z,83.69
2022-08-20T19:55:32.669Z,83.94
2022-08-20T19:58:26.048Z,83.39
2022-08-20T20:01:36.027Z,83.00
2022-08-20T20:04:38.152Z,82.99
2022-08-20T20:07:23.543Z,83.32
2022-08-20T20:10:03.920Z,83.16
2022-08-20T20:12:55.853Z,83.14
2022-08-20T20:15:52.979Z,83.30
2022-08-20T20:18:45.518Z,83.58
2022-08-20T20:21:30.034Z,83.80
2022-08-20T20:24:30.842Z,84.64
2022-08-20T20:27:36.088Z,84.46
2022-08-20T20:30:35.342Z,84.45
2022-08-20T20:33:44.242Z,84.48
2022-08-20T20:36:49.210Z,84.36
2022-08-20T20:40:19.044Z,84.59
2022-08-20T20:43:18.241Z,84.84
2022-08-20T20:46:51.803Z,85.14
2022-08-20T20:49:39.758Z,84.93
2022-08-20T20:52:39.297Z,84.47
2022-08-20T20:55:22.704Z,84.80
2022-08-20T20:57:55.584Z,84.96
2022-08-20T21:00:31.770Z,84.85
2022-08-20T21:03:17.116Z,84.66
2022-08-20T21:06:04.988Z,84.87
2022-08-20T21:08:37.737Z,84.70
2022-08-20T21:11:21.443Z,84.81
2022-08-20T21:14:14.636Z,84.88
2022-08-20T21:17:10.094Z,85.08
2022-08-20T21:20:04.912Z,84.98
2022-08-20T21:22:54.578Z,84.86
2022-08-20T21:25:39.860Z,84.76
2022-08-20T21:28:23.894Z,84.78
2022-08-20T21:31:13.972Z,84.33
2022-08-20T21:34:11.734Z,84.72
2022-08-20T21:37:14.985Z,84.36
2022-08-20T21:40:01.916Z,84.59
2022-08-20T21:42:44.189Z,84.43
2022-08-20T21:45:19.575Z,84.01
2022-08-20T21:47:52.466Z,84.17
2022-08-20T21:50:26.026Z,84.51
2022-08-20T21:56:29.961Z,84.70
2022-08-20T21:59:22.218Z,84.72
2022-08-20T22:02:26.880Z,84.90
2022-08-20T22:04:59.821Z,84.48
2022-08-20T22:07:32.219Z,84.38
2022-08-20T22:10:04.700Z,84.23
2022-08-20T22:12:37.259Z,83.87
2022-08-20T22:15:11.213Z,83.53
2022-08-20T22:17:43.498Z,83.47
2022-08-20T22:20:15.816Z,83.31
2022-08-20T22:22:48.024Z,83.78
2022-08-20T22:25:20.428Z,83.49
2022-08-20T22:27:52.572Z,83.58
2022-08-20T22:30:25.482Z,83.73
2022-08-20T22:33:01.924Z,83.99
2022-08-20T22:35:35.212Z,83.45
2022-08-20T22:38:07.422Z,83.32
2022-08-20T22:40:39.699Z,82.91
2022-08-20T22:43:12.914Z,82.66
2022-08-20T22:45:48.730Z,82.41
2022-08-20T22:48:22.015Z,82.12
2022-08-20T22:50:55.303Z,81.87
2022-08-20T22:53:28.994Z,81.02
2022-08-20T22:56:02.492Z,80.89
2022-08-20T22:58:35.228Z,81.09
2022-08-20T23:01:08.353Z,81.03
2022-08-20T23:03:40.836Z,80.92
2022-08-20T23:06:13.751Z,80.57
2022-08-20T23:08:46.975Z,79.91
2022-08-20T23:11:19.225Z,78.98
2022-08-20T23:13:51.396Z,78.68
2022-08-20T23:16:24.263Z,78.37
2022-08-20T23:18:56.692Z,78.42
2022-08-20T23:21:29.230Z,78.54
2022-08-20T23:24:01.479Z,78.65
2022-08-20T23:26:33.842Z,79.11
2022-08-20T23:29:06.083Z,78.82
2022-08-20T23:31:38.218Z,78.60
2022-08-20T23:34:10.471Z,78.59
2022-08-20T23:36:44.032Z,78.43
2022-08-20T23:39:16.543Z,78.81
2022-08-20T23:41:48.778Z,78.62
2022-08-20T23:44:25.480Z,78.13
2022-08-20T23:47:01.967Z,78.21
2022-08-20T23:49:34.223Z,78.86
2022-08-20T23:52:07.136Z,78.91
2022-08-20T23:54:39.332Z,79.09
2022-08-20T23:57:12.284Z,79.30
2022-08-20T23:59:46.836Z,79.10
